Time;durP1;ratioP1;P1;durP2;ratioP2;P2;SDS_P1;SDS_P2;PMS_P1;PMS_P2;Temp;Humidity;BMP_temperature;BMP_pressure;BME280_temperature;BME280_humidity;BME280_pressure;Samples;Min_cycle;Max_cycle;Signal;HPM_P1;HPM_P2
2021/12/04 00:02:01;;;;;;;5.40;5.00;;;;;;;;;;5052743;28;20423;-52
2021/12/04 00:04:31;;;;;;;7.83;5.20;;;;;;;;;;5053711;28;20411;-51
2021/12/04 00:06:57;;;;;;;5.97;4.70;;;;;;;;;;5054058;28;20416;-52
2021/12/04 00:09:24;;;;;;;7.20;5.23;;;;;;;;;;5054349;28;20411;-54
2021/12/04 00:11:59;;;;;;;5.47;4.97;;;;;;;;;;5054087;28;20471;-55
2021/12/04 00:14:25;;;;;;;6.97;5.20;;;;;;;;;;5054195;28;20468;-52
2021/12/04 00:16:52;;;;;;;5.53;4.87;;;;;;;;;;5054310;28;20931;-55
2021/12/04 00:19:18;;;;;;;5.10;4.80;;;;;;;;;;5054149;28;20462;-53
2021/12/04 00:21:44;;;;;;;5.13;4.73;;;;;;;;;;5053998;28;20424;-53
2021/12/04 00:24:11;;;;;;;7.27;5.90;;;;;;;;;;5054363;28;20433;-52
2021/12/04 00:26:37;;;;;;;5.47;5.00;;;;;;;;;;5054041;28;20416;-52
2021/12/04 00:29:03;;;;;;;5.13;4.67;;;;;;;;;;5053891;28;20768;-52
2021/12/04 00:31:29;;;;;;;4.80;4.43;;;;;;;;;;5053533;28;20537;-51
2021/12/04 00:33:55;;;;;;;8.00;5.03;;;;;;;;;;5053851;28;20416;-51
2021/12/04 00:49:55;;;;;;;5.20;4.70;;;;;;;;;;5053491;28;20465;-52
2021/12/04 00:52:21;;;;;;;10.93;4.30;;;;;;;;;;5053282;28;20971;-53
2021/12/04 00:54:47;;;;;;;5.10;4.70;;;;;;;;;;5053250;28;20404;-54
2021/12/04 00:57:13;;;;;;;5.73;5.23;;;;;;;;;;5053309;28;20784;-52
2021/12/04 00:59:39;;;;;;;5.00;4.70;;;;;;;;;;5053177;28;20407;-53
2021/12/04 01:02:06;;;;;;;5.13;4.63;;;;;;;;;;5053353;28;20509;-52
2021/12/04 01:04:32;;;;;;;6.20;4.93;;;;;;;;;;5052150;28;20428;-55
2021/12/04 01:06:58;;;;;;;6.83;4.90;;;;;;;;;;5053028;28;20920;-53
2021/12/04 01:09:24;;;;;;;4.63;4.33;;;;;;;;;;5053142;28;20801;-55
2021/12/04 01:11:51;;;;;;;4.50;4.20;;;;;;;;;;5052803;28;20463;-52
2021/12/04 01:14:20;;;;;;;6.47;4.80;;;;;;;;;;5053122;28;20408;-54
2021/12/04 01:16:46;;;;;;;5.70;4.87;;;;;;;;;;5051947;28;20408;-54
2021/12/04 01:19:18;;;;;;;7.00;4.97;;;;;;;;;;5052683;28;20459;-53
2021/12/04 01:21:44;;;;;;;5.50;4.90;;;;;;;;;;5053013;28;20435;-54
2021/12/04 01:24:10;;;;;;;5.40;4.87;;;;;;;;;;5052906;28;20400;-54
2021/12/04 01:26:36;;;;;;;4.80;4.40;;;;;;;;;;5052826;28;20404;-55
2021/12/04 01:29:02;;;;;;;4.70;4.30;;;;;;;;;;5052691;28;20404;-51
2021/12/04 01:31:28;;;;;;;9.93;4.73;;;;;;;;;;5052690;28;20471;-57
2021/12/04 01:33:54;;;;;;;5.20;4.67;;;;;;;;;;5051596;28;20408;-59
2021/12/04 01:36:20;;;;;;;5.07;4.57;;;;;;;;;;5052717;28;20423;-57
2021/12/04 01:38:46;;;;;;;5.60;5.13;;;;;;;;;;5052822;28;20404;-52
2021/12/04 01:41:12;;;;;;;5.33;4.83;;;;;;;;;;5052933;28;20887;-55
2021/12/04 01:43:39;;;;;;;9.83;5.17;;;;;;;;;;5052533;28;20497;-54
2021/12/04 01:46:05;;;;;;;5.37;5.07;;;;;;;;;;5052511;28;20419;-52
2021/12/04 01:48:31;;;;;;;4.80;4.40;;;;;;;;;;5052508;28;20407;-59
2021/12/04 01:50:57;;;;;;;5.03;4.73;;;;;;;;;;5052323;28;20790;-54
2021/12/04 01:53:24;;;;;;;5.10;4.47;;;;;;;;;;5052773;28;20761;-52
2021/12/04 01:55:53;;;;;;;6.17;5.10;;;;;;;;;;5052335;28;20388;-55
2021/12/04 01:58:20;;;;;;;5.60;5.20;;;;;;;;;;5052345;28;20502;-58
2021/12/04 02:00:46;;;;;;;4.87;4.50;;;;;;;;;;5052312;28;20427;-52
2021/12/04 02:03:16;;;;;;;5.27;4.90;;;;;;;;;;5052371;28;20400;-55
2021/12/04 02:05:43;;;;;;;6.30;5.20;;;;;;;;;;5052540;28;20414;-56
2021/12/04 02:08:10;;;;;;;5.67;5.10;;;;;;;;;;5052202;28;20973;-54
2021/12/04 02:10:36;;;;;;;6.20;5.17;;;;;;;;;;5052173;28;20772;-54
2021/12/04 02:13:02;;;;;;;6.40;4.50;;;;;;;;;;5050978;28;20423;-54
2021/12/04 02:15:29;;;;;;;4.97;4.50;;;;;;;;;;5050915;28;20970;-52
2021/12/04 02:17:55;;;;;;;5.43;5.03;;;;;;;;;;5051027;28;20928;-52
2021/12/04 02:20:27;;;;;;;6.03;5.13;;;;;;;;;;5052108;28;21039;-55
2021/12/04 02:22:54;;;;;;;5.63;4.93;;;;;;;;;;5052437;28;20437;-54
2021/12/04 02:25:20;;;;;;;5.60;5.10;;;;;;;;;;5052427;28;20414;-54
2021/12/04 02:27:47;;;;;;;5.30;4.83;;;;;;;;;;5052286;28;20473;-53
2021/12/04 02:30:15;;;;;;;5.60;5.20;;;;;;;;;;5055892;28;20403;-56
2021/12/04 02:32:41;;;;;;;5.47;5.00;;;;;;;;;;5055940;28;20411;-53
2021/12/04 02:35:08;;;;;;;5.43;5.03;;;;;;;;;;5055797;28;20912;-53
2021/12/04 02:37:35;;;;;;;5.40;4.90;;;;;;;;;;5055959;28;20426;-54
2021/12/04 02:40:02;;;;;;;5.57;5.17;;;;;;;;;;5055824;28;20500;-56
2021/12/04 02:42:30;;;;;;;6.17;5.00;;;;;;;;;;5055821;28;20416;-55
2021/12/04 02:44:56;;;;;;;5.50;5.00;;;;;;;;;;5054558;28;20426;-53
2021/12/04 02:47:22;;;;;;;5.60;5.10;;;;;;;;;;5055841;28;20416;-53
2021/12/04 02:49:48;;;;;;;6.13;5.63;;;;;;;;;;5055689;28;20461;-53
2021/12/04 02:52:15;;;;;;;6.03;5.53;;;;;;;;;;5055672;28;20819;-52
2021/12/04 02:54:41;;;;;;;5.23;4.83;;;;;;;;;;5055547;28;21049;-54
2021/12/04 02:57:08;;;;;;;7.50;4.90;;;;;;;;;;5055461;28;20541;-54
2021/12/04 02:59:37;;;;;;;5.87;5.40;;;;;;;;;;5055726;28;20416;-54
2021/12/04 03:02:04;;;;;;;6.03;5.53;;;;;;;;;;5054144;28;20784;-58
2021/12/04 03:04:31;;;;;;;6.23;4.83;;;;;;;;;;5055365;28;20421;-56
2021/12/04 03:06:57;;;;;;;5.53;5.10;;;;;;;;;;5055408;28;20515;-57
2021/12/04 03:09:23;;;;;;;5.77;5.20;;;;;;;;;;5055498;28;20811;-58
2021/12/04 03:11:50;;;;;;;5.33;4.93;;;;;;;;;;5055194;28;20479;-56
2021/12/04 03:14:17;;;;;;;5.83;5.23;;;;;;;;;;5055145;28;20418;-53
2021/12/04 03:16:43;;;;;;;4.87;4.57;;;;;;;;;;5055497;28;20494;-54
2021/12/04 03:19:10;;;;;;;5.50;5.10;;;;;;;;;;5055065;28;20505;-56
2021/12/04 03:21:38;;;;;;;5.90;5.40;;;;;;;;;;5055021;28;20498;-55
2021/12/04 03:24:07;;;;;;;5.33;5.00;;;;;;;;;;5054006;28;20478;-55
2021/12/04 03:26:34;;;;;;;5.63;5.17;;;;;;;;;;5054955;28;20419;-54
2021/12/04 03:29:04;;;;;;;5.83;5.33;;;;;;;;;;5054883;28;20759;-58
2021/12/04 03:42:10;;;;;;;6.13;5.63;;;;;;;;;;5054596;28;20477;-54
2021/12/04 03:44:38;;;;;;;6.20;5.70;;;;;;;;;;5054537;28;20435;-54
2021/12/04 03:47:04;;;;;;;5.70;5.20;;;;;;;;;;5054866;28;20465;-55
2021/12/04 03:49:31;;;;;;;8.57;5.47;;;;;;;;;;5054833;28;20407;-57
2021/12/04 03:51:57;;;;;;;5.63;5.20;;;;;;;;;;5054381;28;20475;-52
2021/12/04 03:54:23;;;;;;;6.43;5.83;;;;;;;;;;5054621;28;20403;-57
2021/12/04 03:57:02;;;;;;;7.20;5.90;;;;;;;;;;5054528;28;20412;-53
2021/12/04 03:59:28;;;;;;;8.80;5.50;;;;;;;;;;5054439;28;20427;-52
2021/12/04 04:01:54;;;;;;;6.13;5.63;;;;;;;;;;5053108;28;20462;-52
2021/12/04 04:04:20;;;;;;;6.37;5.87;;;;;;;;;;5054401;28;20416;-55
2021/12/04 04:06:46;;;;;;;9.53;7.03;;;;;;;;;;5054216;28;20503;-56
2021/12/04 04:09:12;;;;;;;6.10;5.63;;;;;;;;;;5052895;28;20441;-53
2021/12/04 04:11:38;;;;;;;6.40;5.90;;;;;;;;;;5054182;28;20471;-54
2021/12/04 04:14:05;;;;;;;7.47;6.77;;;;;;;;;;5054119;28;20404;-52
2021/12/04 04:16:34;;;;;;;10.30;8.50;;;;;;;;;;5054445;28;20856;-54
2021/12/04 04:19:00;;;;;;;7.57;6.77;;;;;;;;;;5053719;28;20525;-53
2021/12/04 04:21:26;;;;;;;7.27;6.57;;;;;;;;;;5053947;28;20935;-55
2021/12/04 04:23:52;;;;;;;10.33;6.80;;;;;;;;;;5053966;28;20412;-52
2021/12/04 04:26:18;;;;;;;8.53;6.73;;;;;;;;;;5053806;28;20856;-53
2021/12/04 04:28:44;;;;;;;8.23;6.27;;;;;;;;;;5053800;28;20960;-52
2021/12/04 04:31:10;;;;;;;11.03;7.03;;;;;;;;;;5053892;28;20459;-54
2021/12/04 04:33:42;;;;;;;7.10;6.50;;;;;;;;;;5053658;28;20408;-52
2021/12/04 04:36:43;;;;;;;7.43;6.73;;;;;;;;;;5053755;28;20827;-51
2021/12/04 04:39:40;;;;;;;7.10;6.50;;;;;;;;;;5053900;28;20419;-53
2021/12/04 05:14:33;;;;;;;10.40;7.90;;;;;;;;;;5053178;28;20416;-53
2021/12/04 05:17:05;;;;;;;9.57;8.37;;;;;;;;;;5052804;28;20973;-50
2021/12/04 05:19:46;;;;;;;11.50;8.20;;;;;;;;;;5052680;28;20453;-51
2021/12/04 05:22:12;;;;;;;11.50;8.37;;;;;;;;;;5052920;28;20411;-59
2021/12/04 05:24:39;;;;;;;15.43;9.10;;;;;;;;;;5052776;28;20418;-52
2021/12/04 05:27:05;;;;;;;11.30;8.50;;;;;;;;;;5052785;28;20416;-55
2021/12/04 05:29:31;;;;;;;13.90;9.27;;;;;;;;;;5052855;28;20411;-51
2021/12/04 05:31:57;;;;;;;13.57;8.60;;;;;;;;;;5052685;28;20502;-52
2021/12/04 05:34:23;;;;;;;13.93;9.77;;;;;;;;;;5053074;28;20428;-53
2021/12/04 05:36:49;;;;;;;14.57;9.10;;;;;;;;;;5052786;28;20415;-52
2021/12/04 05:39:15;;;;;;;10.53;8.83;;;;;;;;;;5052714;28;20404;-52
2021/12/04 05:41:41;;;;;;;17.20;9.47;;;;;;;;;;5052866;28;20815;-52
2021/12/04 05:44:09;;;;;;;13.33;9.10;;;;;;;;;;5051437;28;20905;-52
2021/12/04 05:46:43;;;;;;;15.30;10.33;;;;;;;;;;5032556;28;20940;-52
2021/12/04 05:49:23;;;;;;;11.90;9.40;;;;;;;;;;5032720;28;20405;-54
2021/12/04 05:52:33;;;;;;;14.70;9.67;;;;;;;;;;5032758;28;20472;-53
2021/12/04 05:57:09;;;;;;;17.90;10.90;;;;;;;;;;5031835;28;20417;-54
2021/12/04 05:59:35;;;;;;;14.97;9.73;;;;;;;;;;5031283;28;20420;-53
2021/12/04 06:02:02;;;;;;;12.67;9.73;;;;;;;;;;5032869;28;20885;-53
2021/12/04 06:04:28;;;;;;;15.37;10.13;;;;;;;;;;5035822;28;20762;-54
2021/12/04 06:06:54;;;;;;;13.93;9.93;;;;;;;;;;5036730;28;20413;-53
2021/12/04 06:09:20;;;;;;;15.30;10.60;;;;;;;;;;5036642;28;20412;-54
2021/12/04 06:11:47;;;;;;;16.37;10.33;;;;;;;;;;5036339;28;21009;-53
2021/12/04 06:14:13;;;;;;;12.53;9.70;;;;;;;;;;5036300;28;20412;-55
2021/12/04 06:16:39;;;;;;;16.70;10.37;;;;;;;;;;5036384;28;20905;-54
2021/12/04 06:19:13;;;;;;;14.40;10.17;;;;;;;;;;5036287;28;20456;-54
2021/12/04 06:24:24;;;;;;;16.60;11.17;;;;;;;;;;5036320;28;20416;-53
2021/12/04 06:26:50;;;;;;;15.60;11.20;;;;;;;;;;5036190;28;20408;-54
2021/12/04 06:29:17;;;;;;;15.30;11.03;;;;;;;;;;5036279;28;20921;-51
2021/12/04 06:31:43;;;;;;;17.77;11.27;;;;;;;;;;5034766;28;20478;-56
2021/12/04 06:34:09;;;;;;;15.70;11.07;;;;;;;;;;5036010;28;20405;-52
2021/12/04 06:36:35;;;;;;;19.13;11.10;;;;;;;;;;5035909;28;20416;-57
2021/12/04 06:39:02;;;;;;;15.83;10.47;;;;;;;;;;5036004;28;20916;-53
2021/12/04 06:41:28;;;;;;;13.73;10.20;;;;;;;;;;5036012;28;20404;-52
2021/12/04 06:43:55;;;;;;;15.43;10.37;;;;;;;;;;5036181;28;20404;-56
2021/12/04 06:46:22;;;;;;;19.40;11.80;;;;;;;;;;5036139;28;20524;-54
2021/12/04 06:51:28;;;;;;;16.10;11.30;;;;;;;;;;5035622;28;20541;-56
2021/12/04 06:56:22;;;;;;;18.37;11.27;;;;;;;;;;5036074;28;20747;-55
2021/12/04 06:58:48;;;;;;;14.70;10.40;;;;;;;;;;5035717;28;20900;-54
2021/12/04 07:01:14;;;;;;;17.37;11.37;;;;;;;;;;5035792;28;20454;-56
2021/12/04 07:03:41;;;;;;;16.53;11.10;;;;;;;;;;5035683;28;20416;-56
2021/12/04 07:06:07;;;;;;;19.30;12.20;;;;;;;;;;5035901;28;20420;-56
2021/12/04 07:08:33;;;;;;;14.73;11.20;;;;;;;;;;5035499;28;20466;-56
2021/12/04 07:11:03;;;;;;;17.37;11.97;;;;;;;;;;5035549;28;20460;-57
2021/12/04 07:13:29;;;;;;;15.23;11.20;;;;;;;;;;5034105;28;20758;-55
2021/12/04 07:16:02;;;;;;;18.10;11.63;;;;;;;;;;5035580;28;21011;-55
2021/12/04 07:18:29;;;;;;;16.50;11.30;;;;;;;;;;5035428;28;20424;-56
2021/12/04 07:20:55;;;;;;;14.03;9.93;;;;;;;;;;5035307;28;20417;-52
2021/12/04 07:23:21;;;;;;;15.10;10.90;;;;;;;;;;5035054;28;20922;-57
2021/12/04 07:25:48;;;;;;;17.00;10.77;;;;;;;;;;5033950;28;20544;-56
2021/12/04 07:28:14;;;;;;;15.77;11.10;;;;;;;;;;5035077;28;20404;-56
2021/12/04 07:30:40;;;;;;;14.13;10.37;;;;;;;;;;5034844;28;20415;-56
2021/12/04 07:33:06;;;;;;;16.30;11.27;;;;;;;;;;5034929;28;20427;-56
2021/12/04 07:35:32;;;;;;;17.50;12.20;;;;;;;;;;5035156;28;20401;-57
2021/12/04 07:38:00;;;;;;;15.73;11.17;;;;;;;;;;5034926;28;20409;-56
2021/12/04 07:40:26;;;;;;;14.37;10.87;;;;;;;;;;5034787;28;20408;-57
2021/12/04 07:42:52;;;;;;;16.80;10.70;;;;;;;;;;5034801;28;20448;-59
2021/12/04 07:45:18;;;;;;;18.33;12.43;;;;;;;;;;5034702;28;20405;-54
2021/12/04 07:47:46;;;;;;;17.63;12.60;;;;;;;;;;5034482;28;20417;-53
2021/12/04 07:50:12;;;;;;;18.67;12.87;;;;;;;;;;5034727;28;20420;-53
2021/12/04 07:52:38;;;;;;;22.10;13.20;;;;;;;;;;5034172;28;20468;-54
2021/12/04 07:55:05;;;;;;;17.87;12.17;;;;;;;;;;5033468;28;20808;-54
2021/12/04 07:57:31;;;;;;;18.70;12.30;;;;;;;;;;5033883;28;20418;-53
2021/12/04 07:59:57;;;;;;;18.63;12.03;;;;;;;;;;5033084;28;20762;-53
2021/12/04 08:02:23;;;;;;;20.33;11.83;;;;;;;;;;5034244;28;20893;-54
2021/12/04 08:04:49;;;;;;;14.90;11.17;;;;;;;;;;5034165;28;20409;-55
2021/12/04 08:07:15;;;;;;;15.37;10.70;;;;;;;;;;5034137;28;20420;-54
2021/12/04 08:09:42;;;;;;;15.20;11.10;;;;;;;;;;5034246;28;20397;-54
2021/12/04 08:12:10;;;;;;;15.70;10.87;;;;;;;;;;5033981;28;20491;-56
2021/12/04 08:14:36;;;;;;;17.20;11.40;;;;;;;;;;5034155;28;20405;-52
2021/12/04 08:17:02;;;;;;;17.00;10.97;;;;;;;;;;5034185;28;20515;-54
2021/12/04 08:19:28;;;;;;;16.83;12.03;;;;;;;;;;5033917;28;20979;-55
2021/12/04 08:21:54;;;;;;;15.93;11.70;;;;;;;;;;5034311;28;20424;-57
2021/12/04 08:24:20;;;;;;;17.50;11.00;;;;;;;;;;5032845;28;20495;-58
2021/12/04 08:26:47;;;;;;;15.33;11.50;;;;;;;;;;5033396;28;20590;-59
2021/12/04 08:29:13;;;;;;;15.30;11.50;;;;;;;;;;5033173;28;20405;-53
2021/12/04 08:31:40;;;;;;;15.67;11.07;;;;;;;;;;5032629;28;20468;-55
2021/12/04 08:34:06;;;;;;;17.37;12.10;;;;;;;;;;5033697;28;20423;-53
2021/12/04 08:36:32;;;;;;;19.03;13.30;;;;;;;;;;5033941;28;20423;-55
2021/12/04 08:38:59;;;;;;;16.63;12.10;;;;;;;;;;5033762;28;20440;-56
2021/12/04 08:41:26;;;;;;;17.53;12.67;;;;;;;;;;5033884;28;20952;-54
2021/12/04 08:43:54;;;;;;;17.93;12.83;;;;;;;;;;5033773;28;20940;-55
2021/12/04 08:46:20;;;;;;;15.20;11.20;;;;;;;;;;5033632;28;20423;-55
2021/12/04 08:48:47;;;;;;;16.33;12.10;;;;;;;;;;5033801;28;20432;-56
2021/12/04 08:51:13;;;;;;;19.03;11.77;;;;;;;;;;5033822;28;20468;-57
2021/12/04 08:53:41;;;;;;;15.90;11.93;;;;;;;;;;5033622;28;20423;-56
2021/12/04 08:56:07;;;;;;;15.70;11.93;;;;;;;;;;5033881;28;20409;-57
2021/12/04 08:58:37;;;;;;;19.03;12.27;;;;;;;;;;5032246;28;20428;-56
2021/12/04 09:01:05;;;;;;;17.70;12.40;;;;;;;;;;5032138;28;20459;-58
2021/12/04 09:03:36;;;;;;;15.70;12.20;;;;;;;;;;5033539;28;20408;-54
2021/12/04 09:06:03;;;;;;;17.40;12.60;;;;;;;;;;5033271;28;20408;-55
2021/12/04 09:08:30;;;;;;;19.67;12.83;;;;;;;;;;5033394;28;20444;-54
2021/12/04 09:10:57;;;;;;;17.20;12.37;;;;;;;;;;5033472;28;20464;-54
2021/12/04 09:13:24;;;;;;;15.27;11.70;;;;;;;;;;5033380;28;20413;-60
2021/12/04 09:15:50;;;;;;;16.33;11.63;;;;;;;;;;5033257;28;20909;-58
2021/12/04 09:18:16;;;;;;;13.90;10.50;;;;;;;;;;5033206;28;20401;-57
2021/12/04 09:20:42;;;;;;;14.60;11.00;;;;;;;;;;5032922;28;20570;-55
2021/12/04 09:23:15;;;;;;;15.30;11.30;;;;;;;;;;5033107;28;20414;-57
2021/12/04 09:25:46;;;;;;;15.53;11.03;;;;;;;;;;5033246;28;20412;-59
2021/12/04 09:28:25;;;;;;;15.57;11.53;;;;;;;;;;5032833;28;20454;-56
2021/12/04 09:36:43;;;;;;;14.83;11.10;;;;;;;;;;5033073;28;20408;-57
2021/12/04 10:01:26;;;;;;;13.93;10.93;;;;;;;;;;5032917;28;20395;-55
2021/12/04 10:34:14;;;;;;;11.83;10.30;;;;;;;;;;5032344;28;20411;-56
2021/12/04 10:36:40;;;;;;;12.20;10.47;;;;;;;;;;5032410;28;20420;-55
2021/12/04 10:39:11;;;;;;;13.27;10.77;;;;;;;;;;5032722;28;20396;-57
2021/12/04 10:41:42;;;;;;;11.90;9.97;;;;;;;;;;5032486;28;20401;-56
2021/12/04 10:44:14;;;;;;;12.50;10.10;;;;;;;;;;5032347;28;20412;-55
2021/12/04 10:46:40;;;;;;;15.23;10.60;;;;;;;;;;5032199;28;20449;-57
2021/12/04 10:49:15;;;;;;;10.87;9.50;;;;;;;;;;5033193;28;20401;-55
2021/12/04 10:51:47;;;;;;;13.07;10.60;;;;;;;;;;5035906;28;20486;-54
2021/12/04 10:54:25;;;;;;;13.43;9.70;;;;;;;;;;5035867;28;20420;-54
2021/12/04 10:57:26;;;;;;;10.40;9.10;;;;;;;;;;5034414;28;20946;-55
2021/12/04 10:59:59;;;;;;;11.27;10.00;;;;;;;;;;5035620;28;20495;-53
2021/12/04 11:02:36;;;;;;;12.27;9.90;;;;;;;;;;5034557;28;20558;-54
2021/12/04 11:05:26;;;;;;;11.47;9.90;;;;;;;;;;5035519;28;20495;-54
2021/12/04 11:34:56;;;;;;;11.13;9.67;;;;;;;;;;5035058;28;20487;-54
2021/12/04 11:45:04;;;;;;;12.10;9.73;;;;;;;;;;5035198;28;20500;-51
2021/12/04 11:47:40;;;;;;;11.40;9.53;;;;;;;;;;5034862;28;20405;-53
2021/12/04 11:50:21;;;;;;;12.20;9.60;;;;;;;;;;5034698;28;20407;-52
2021/12/04 11:52:48;;;;;;;11.87;10.30;;;;;;;;;;5034585;28;20867;-54
2021/12/04 11:55:15;;;;;;;10.80;9.53;;;;;;;;;;5033421;28;20951;-55
2021/12/04 11:57:42;;;;;;;11.17;9.73;;;;;;;;;;5035019;28;20405;-55
2021/12/04 12:00:14;;;;;;;10.43;9.40;;;;;;;;;;5034442;28;20397;-55
2021/12/04 12:02:40;;;;;;;10.40;9.33;;;;;;;;;;5034415;28;20475;-53
2021/12/04 12:05:08;;;;;;;11.10;9.80;;;;;;;;;;5034759;28;20397;-55
2021/12/04 12:07:34;;;;;;;12.00;10.37;;;;;;;;;;5034714;28;20412;-53
2021/12/04 12:10:11;;;;;;;11.40;9.30;;;;;;;;;;5034619;28;20408;-54
2021/12/04 12:12:38;;;;;;;10.80;9.33;;;;;;;;;;5034207;28;20468;-54
2021/12/04 12:15:28;;;;;;;10.80;9.70;;;;;;;;;;5034398;28;20437;-54
2021/12/04 12:17:54;;;;;;;10.97;9.87;;;;;;;;;;5034432;28;20774;-55
2021/12/04 12:20:49;;;;;;;11.20;10.10;;;;;;;;;;5033973;28;20490;-56
2021/12/04 12:23:21;;;;;;;10.30;8.90;;;;;;;;;;5033994;28;20415;-55
2021/12/04 12:37:23;;;;;;;10.37;9.33;;;;;;;;;;5021873;28;20561;-61
2021/12/04 12:39:57;;;;;;;14.20;10.00;;;;;;;;;;5033812;28;20412;-58
2021/12/04 12:42:26;;;;;;;11.50;9.83;;;;;;;;;;5033855;28;20404;-59
2021/12/04 12:44:52;;;;;;;10.43;9.30;;;;;;;;;;5033886;28;20408;-53
2021/12/04 12:47:19;;;;;;;10.83;9.80;;;;;;;;;;5033789;28;20478;-54
2021/12/04 12:49:45;;;;;;;11.07;9.97;;;;;;;;;;5033656;28;20746;-53
2021/12/04 12:52:23;;;;;;;10.20;9.20;;;;;;;;;;5033607;28;20467;-56
2021/12/04 12:54:54;;;;;;;10.50;8.77;;;;;;;;;;5033587;28;20412;-54
2021/12/04 12:57:23;;;;;;;12.00;10.47;;;;;;;;;;5033465;28;20409;-55
2021/12/04 13:14:22;;;;;;;10.13;9.13;;;;;;;;;;5033396;28;20940;-59
2021/12/04 13:16:48;;;;;;;9.43;8.53;;;;;;;;;;5022951;28;20421;-56
2021/12/04 13:19:15;;;;;;;10.23;9.13;;;;;;;;;;5032990;28;20864;-55
2021/12/04 13:21:42;;;;;;;10.20;9.00;;;;;;;;;;5033090;28;20934;-56
2021/12/04 13:24:12;;;;;;;10.93;9.83;;;;;;;;;;5033099;28;20416;-56
2021/12/04 13:26:43;;;;;;;10.20;9.20;;;;;;;;;;5033066;28;20412;-54
2021/12/04 13:29:10;;;;;;;10.77;9.53;;;;;;;;;;5033357;28;20475;-54
2021/12/04 13:31:38;;;;;;;12.00;10.30;;;;;;;;;;5031692;28;21095;-57
2021/12/04 13:34:05;;;;;;;10.20;9.20;;;;;;;;;;5032829;28;20944;-55
2021/12/04 13:36:32;;;;;;;11.43;9.33;;;;;;;;;;5033211;28;20921;-56
2021/12/04 13:38:58;;;;;;;11.83;9.70;;;;;;;;;;5033090;28;20400;-54
2021/12/04 13:41:25;;;;;;;11.13;9.40;;;;;;;;;;5033325;28;20416;-54
2021/12/04 13:43:52;;;;;;;11.70;10.10;;;;;;;;;;5032788;28;20411;-55
2021/12/04 13:46:18;;;;;;;19.70;14.20;;;;;;;;;;5032840;28;20503;-58
2021/12/04 13:48:44;;;;;;;16.17;12.50;;;;;;;;;;5032893;28;20436;-57
2021/12/04 13:51:11;;;;;;;10.33;9.33;;;;;;;;;;5032755;28;20458;-54
2021/12/04 13:53:39;;;;;;;10.60;9.50;;;;;;;;;;5031253;28;20424;-55
2021/12/04 13:56:15;;;;;;;11.80;9.93;;;;;;;;;;5032674;28;20409;-55
2021/12/04 13:58:56;;;;;;;11.27;10.00;;;;;;;;;;5032572;28;20411;-55
2021/12/04 14:01:23;;;;;;;10.83;9.73;;;;;;;;;;5032813;28;20918;-55
2021/12/04 14:03:49;;;;;;;10.60;9.50;;;;;;;;;;5032705;28;20416;-54
2021/12/04 14:06:16;;;;;;;11.27;9.80;;;;;;;;;;5032589;28;20778;-55
2021/12/04 14:08:42;;;;;;;11.77;10.43;;;;;;;;;;5032628;28;20863;-54
2021/12/04 14:11:08;;;;;;;10.53;9.47;;;;;;;;;;5032234;28;20975;-57
2021/12/04 14:13:37;;;;;;;12.27;10.53;;;;;;;;;;5032558;28;20420;-53
2021/12/04 14:16:03;;;;;;;11.07;9.60;;;;;;;;;;5032543;28;20412;-58
2021/12/04 14:18:30;;;;;;;12.10;9.07;;;;;;;;;;5032265;28;20416;-52
2021/12/04 14:21:00;;;;;;;10.17;9.07;;;;;;;;;;5032509;28;20770;-56
2021/12/04 14:23:27;;;;;;;10.73;9.13;;;;;;;;;;5032323;28;20932;-57
2021/12/04 14:25:54;;;;;;;10.50;9.37;;;;;;;;;;5036187;28;20400;-55
2021/12/04 14:28:22;;;;;;;11.43;9.10;;;;;;;;;;5035095;28;20420;-54
2021/12/04 14:30:48;;;;;;;11.53;9.57;;;;;;;;;;5036300;28;20482;-56
2021/12/04 14:33:15;;;;;;;11.43;9.73;;;;;;;;;;5035973;28;20440;-54
2021/12/04 14:35:44;;;;;;;11.37;8.97;;;;;;;;;;5036285;28;20451;-53
2021/12/04 14:38:12;;;;;;;10.40;9.30;;;;;;;;;;5036248;28;20436;-55
2021/12/04 14:40:41;;;;;;;9.73;8.73;;;;;;;;;;5036124;28;20404;-53
2021/12/04 14:43:09;;;;;;;10.70;9.37;;;;;;;;;;5036102;28;20411;-56
2021/12/04 14:45:36;;;;;;;9.47;8.47;;;;;;;;;;5034430;28;20431;-57
2021/12/04 14:48:04;;;;;;;21.87;16.63;;;;;;;;;;5036195;28;20408;-54
2021/12/04 14:50:31;;;;;;;10.97;9.30;;;;;;;;;;5036007;28;20714;-56
2021/12/04 14:52:58;;;;;;;11.70;10.00;;;;;;;;;;5034463;28;20484;-55
2021/12/04 14:55:24;;;;;;;11.30;9.17;;;;;;;;;;5034591;28;20768;-56
2021/12/04 14:57:51;;;;;;;10.83;8.60;;;;;;;;;;5035699;28;20482;-55
2021/12/04 15:00:46;;;;;;;11.53;9.13;;;;;;;;;;5035782;28;20405;-58
2021/12/04 15:03:28;;;;;;;9.70;8.80;;;;;;;;;;5031359;28;20420;-54
2021/12/04 15:05:57;;;;;;;11.47;8.90;;;;;;;;;;5035672;28;20407;-57
2021/12/04 15:08:26;;;;;;;10.37;8.77;;;;;;;;;;5034460;28;20431;-55
2021/12/04 15:11:00;;;;;;;9.80;8.80;;;;;;;;;;5035578;28;21035;-54
2021/12/04 15:13:29;;;;;;;8.87;7.97;;;;;;;;;;5034592;28;20758;-60
2021/12/04 15:15:57;;;;;;;9.73;8.73;;;;;;;;;;5034175;28;20409;-61
2021/12/04 15:18:25;;;;;;;10.10;9.00;;;;;;;;;;5034252;28;20421;-53
2021/12/04 15:20:56;;;;;;;43.70;19.70;;;;;;;;;;5033865;28;20977;-55
2021/12/04 15:23:23;;;;;;;10.57;9.47;;;;;;;;;;5035555;28;20408;-55
2021/12/04 15:25:54;;;;;;;10.50;9.40;;;;;;;;;;5035303;28;20420;-54
2021/12/04 15:28:22;;;;;;;10.83;9.13;;;;;;;;;;5035398;28;20408;-54
2021/12/04 15:30:50;;;;;;;10.53;8.50;;;;;;;;;;5035322;28;20408;-54
2021/12/04 15:33:23;;;;;;;12.10;9.33;;;;;;;;;;5033992;28;20516;-53
2021/12/04 15:35:51;;;;;;;9.67;8.67;;;;;;;;;;5033952;28;20443;-52
2021/12/04 15:38:29;;;;;;;10.63;8.63;;;;;;;;;;5035133;28;20424;-53
2021/12/04 15:46:29;;;;;;;9.13;8.10;;;;;;;;;;5035067;28;20415;-57
2021/12/04 15:54:34;;;;;;;9.70;8.70;;;;;;;;;;5034885;28;20416;-55
2021/12/04 15:57:00;;;;;;;9.57;8.57;;;;;;;;;;5034815;28;20488;-54
2021/12/04 15:59:28;;;;;;;12.20;9.03;;;;;;;;;;5034804;28;20841;-58
2021/12/04 16:01:59;;;;;;;14.30;10.53;;;;;;;;;;5034948;28;20404;-54
2021/12/04 16:04:30;;;;;;;9.40;8.40;;;;;;;;;;5034577;28;20746;-53
2021/12/04 16:06:57;;;;;;;9.97;8.97;;;;;;;;;;5034918;28;20828;-53
2021/12/04 16:09:25;;;;;;;10.47;8.83;;;;;;;;;;5033337;28;20805;-56
2021/12/04 16:11:51;;;;;;;9.17;8.27;;;;;;;;;;5034760;28;20551;-52
2021/12/04 16:14:17;;;;;;;12.33;9.10;;;;;;;;;;5034490;28;20466;-55
2021/12/04 16:16:43;;;;;;;9.10;8.20;;;;;;;;;;5034323;28;20421;-55
2021/12/04 16:19:09;;;;;;;9.83;8.60;;;;;;;;;;5034074;28;20452;-56
2021/12/04 16:21:36;;;;;;;9.40;8.50;;;;;;;;;;5034206;28;20916;-54
2021/12/04 16:24:06;;;;;;;11.03;8.43;;;;;;;;;;5034278;28;20408;-55
2021/12/04 16:26:32;;;;;;;8.90;8.10;;;;;;;;;;5034166;28;20400;-54
2021/12/04 16:29:07;;;;;;;9.20;8.30;;;;;;;;;;5034029;28;20904;-53
2021/12/04 16:40:00;;;;;;;11.30;9.90;;;;;;;;;;5033984;28;20448;-57
2021/12/04 16:42:27;;;;;;;14.50;11.47;;;;;;;;;;5034021;28;20801;-56
2021/12/04 16:44:53;;;;;;;18.23;11.80;;;;;;;;;;5033925;28;20444;-54
2021/12/04 16:47:20;;;;;;;14.67;11.97;;;;;;;;;;5033342;28;20500;-53
2021/12/04 16:49:47;;;;;;;16.10;12.23;;;;;;;;;;5033755;28;20943;-54
2021/12/04 16:55:18;;;;;;;17.43;12.70;;;;;;;;;;5033861;28;20408;-54
2021/12/04 16:57:57;;;;;;;16.77;12.00;;;;;;;;;;5033603;28;20421;-54
2021/12/04 17:00:24;;;;;;;16.70;11.83;;;;;;;;;;5033876;28;20432;-55
2021/12/04 17:02:50;;;;;;;15.23;12.27;;;;;;;;;;5033424;28;20447;-56
2021/12/04 17:05:17;;;;;;;15.77;11.70;;;;;;;;;;5033318;28;20482;-54
2021/12/04 17:07:43;;;;;;;15.80;11.90;;;;;;;;;;5033312;28;20542;-59
2021/12/04 17:10:10;;;;;;;16.80;12.37;;;;;;;;;;5033481;28;20419;-54
2021/12/04 17:12:37;;;;;;;19.13;11.73;;;;;;;;;;5033142;28;20897;-55
2021/12/04 17:15:07;;;;;;;15.90;11.63;;;;;;;;;;5032855;28;20440;-56
2021/12/04 17:17:36;;;;;;;15.23;12.17;;;;;;;;;;5032850;28;20421;-53
2021/12/04 17:20:03;;;;;;;14.63;11.40;;;;;;;;;;5032889;28;20455;-53
2021/12/04 17:22:29;;;;;;;17.40;11.87;;;;;;;;;;5032950;28;20499;-53
2021/12/04 17:24:55;;;;;;;18.87;13.27;;;;;;;;;;5033194;28;20399;-53
2021/12/04 17:27:21;;;;;;;17.70;13.20;;;;;;;;;;5033231;28;20412;-54
2021/12/04 17:29:51;;;;;;;17.13;13.07;;;;;;;;;;5032893;28;20408;-55
2021/12/04 17:32:19;;;;;;;16.10;12.80;;;;;;;;;;5032684;28;20778;-54
2021/12/04 17:34:46;;;;;;;19.30;13.60;;;;;;;;;;5032785;28;20500;-53
2021/12/04 17:37:12;;;;;;;17.77;13.53;;;;;;;;;;5032969;28;20435;-57
2021/12/04 17:39:38;;;;;;;18.77;13.73;;;;;;;;;;5033044;28;20437;-54
2021/12/04 17:42:04;;;;;;;19.33;14.30;;;;;;;;;;5032745;28;20455;-55
2021/12/04 17:44:30;;;;;;;20.67;13.67;;;;;;;;;;5032916;28;20412;-54
2021/12/04 17:46:57;;;;;;;18.40;14.47;;;;;;;;;;5033123;28;20424;-54
2021/12/04 17:49:24;;;;;;;20.70;14.47;;;;;;;;;;5033023;28;20496;-55
2021/12/04 17:51:50;;;;;;;17.23;13.70;;;;;;;;;;5033135;28;21064;-55
2021/12/04 17:54:16;;;;;;;20.87;14.03;;;;;;;;;;5032857;28;20409;-55
2021/12/04 17:56:46;;;;;;;25.20;14.33;;;;;;;;;;5032910;28;20438;-55
2021/12/04 17:59:12;;;;;;;19.33;13.63;;;;;;;;;;5032178;28;20874;-57
2021/12/04 18:01:42;;;;;;;18.40;14.03;;;;;;;;;;5032720;28;20412;-55
2021/12/04 18:04:08;;;;;;;16.60;12.77;;;;;;;;;;5033056;28;20412;-53